Time;durP1;ratioP1;P1;durP2;ratioP2;P2;SDS_P1;SDS_P2;PMS_P1;PMS_P2;Temp;Humidity;BMP_temperature;BMP_pressure;BME280_temperature;BME280_humidity;BME280_pressure;Samples;Min_cycle;Max_cycle;Signal;HPM_P1;HPM_P2
2023/03/05 00:12:27;;;;;;;0.20;0.20;;;17.90;28.20;;;;;;4926676;29;20174;-82
2023/03/05 00:21:32;;;;;;;0.57;0.30;;;17.90;28.30;;;;;;4872704;29;20184;-82
2023/03/05 00:24:42;;;;;;;0.22;0.22;;;17.90;28.30;;;;;;4857955;29;20229;-83
2023/03/05 00:34:06;;;;;;;0.57;0.30;;;17.90;28.30;;;;;;4886683;29;20203;-81
2023/03/05 00:37:01;;;;;;;0.30;0.30;;;17.90;28.40;;;;;;4852227;29;20275;-83
2023/03/05 00:39:34;;;;;;;0.20;0.20;;;17.90;28.40;;;;;;4852298;29;20188;-83
2023/03/05 00:42:06;;;;;;;0.28;0.25;;;17.80;28.30;;;;;;4852118;29;20176;-83
2023/03/05 00:48:27;;;;;;;0.32;0.20;;;17.80;28.40;;;;;;4868331;29;20156;-82
2023/03/05 00:50:56;;;;;;;0.52;0.25;;;17.80;28.40;;;;;;4847624;29;20219;-83
2023/03/05 01:00:15;;;;;;;0.17;0.15;;;17.80;28.50;;;;;;4895275;29;20221;-84
2023/03/05 01:02:52;;;;;;;0.20;0.20;;;17.80;28.50;;;;;;4869809;29;20663;-83
2023/03/05 01:05:25;;;;;;;0.73;0.30;;;17.80;28.50;;;;;;4837571;29;20204;-83
2023/03/05 01:07:53;;;;;;;0.50;0.30;;;17.80;28.50;;;;;;4832762;29;20216;-83
2023/03/05 01:10:30;;;;;;;0.82;0.25;;;17.80;28.50;;;;;;4830292;29;20194;-82
2023/03/05 01:12:57;;;;;;;0.38;0.20;;;17.80;28.50;;;;;;4830326;29;20221;-82
2023/03/05 01:22:41;;;;;;;0.35;0.20;;;17.80;28.50;;;;;;4841115;29;20299;-83
2023/03/05 01:25:11;;;;;;;1.10;0.30;;;17.80;28.60;;;;;;4848008;29;20200;-83
2023/03/05 01:27:41;;;;;;;0.57;0.47;;;17.70;28.60;;;;;;4847108;29;20201;-84
2023/03/05 01:41:01;;;;;;;0.70;0.30;;;17.70;28.60;;;;;;4904361;29;20159;-84
2023/03/05 01:47:31;;;;;;;0.38;0.25;;;17.70;28.60;;;;;;4923158;29;20173;-83
2023/03/05 01:50:20;;;;;;;0.30;0.20;;;17.70;28.60;;;;;;4921781;29;20182;-83
2023/03/05 01:53:13;;;;;;;0.52;0.28;;;17.70;28.60;;;;;;4922860;29;20213;-81
2023/03/05 01:55:39;;;;;;;0.45;0.40;;;17.70;28.60;;;;;;4922717;29;20170;-83
2023/03/05 01:58:09;;;;;;;0.70;0.30;;;17.80;28.70;;;;;;4929015;29;20208;-83
2023/03/05 02:04:45;;;;;;;0.10;0.10;;;17.70;28.80;;;;;;4926460;29;20208;-84
2023/03/05 02:14:19;;;;;;;0.32;0.30;;;17.70;28.80;;;;;;4926641;29;20217;-82
2023/03/05 02:20:10;;;;;;;0.40;0.20;;;17.60;28.80;;;;;;4908912;29;20166;-83
2023/03/05 02:25:58;;;;;;;0.68;0.30;;;17.70;28.90;;;;;;4907353;29;20357;-82
2023/03/05 02:28:43;;;;;;;0.10;0.10;;;17.60;28.80;;;;;;4855157;29;20197;-83
2023/03/05 02:31:19;;;;;;;0.43;0.30;;;17.70;28.80;;;;;;4835937;29;20282;-83
2023/03/05 02:37:18;;;;;;;0.20;0.20;;;17.60;28.90;;;;;;4926493;29;20177;-82
2023/03/05 02:39:57;;;;;;;1.27;0.52;;;17.60;28.80;;;;;;4872752;29;20191;-83
2023/03/05 02:46:07;;;;;;;0.20;0.20;;;17.60;28.90;;;;;;4869858;29;20176;-82
2023/03/05 02:48:52;;;;;;;0.30;0.20;;;17.60;28.90;;;;;;4842792;29;20184;-83
2023/03/05 02:51:34;;;;;;;0.52;0.22;;;17.60;28.90;;;;;;4855857;29;20189;-82
2023/03/05 02:57:21;;;;;;;0.45;0.30;;;17.60;28.90;;;;;;4870425;29;20229;-83
2023/03/05 02:59:56;;;;;;;0.20;0.20;;;17.60;28.90;;;;;;4878025;29;20663;-82
2023/03/05 03:12:40;;;;;;;1.10;0.30;;;17.60;29.00;;;;;;4910992;29;20297;-82
2023/03/05 03:22:04;;;;;;;0.22;0.20;;;17.60;29.10;;;;;;4868792;29;20267;-82
2023/03/05 03:32:09;;;;;;;0.20;0.20;;;17.60;29.10;;;;;;4903737;29;20236;-82
2023/03/05 03:35:31;;;;;;;0.30;0.30;;;17.50;29.10;;;;;;4890068;29;20203;-82
2023/03/05 03:41:56;;;;;;;0.65;0.20;;;17.50;29.10;;;;;;4906819;29;20163;-84
2023/03/05 03:47:44;;;;;;;0.35;0.22;;;17.60;29.10;;;;;;4906531;29;20252;-83
2023/03/05 03:50:56;;;;;;;0.50;0.20;;;17.60;29.10;;;;;;4859448;29;20183;-82
2023/03/05 03:53:36;;;;;;;0.80;0.30;;;17.60;29.10;;;;;;4886610;29;20321;-83
2023/03/05 04:03:45;;;;;;;0.20;0.15;;;17.50;29.10;;;;;;4913931;29;20216;-82
2023/03/05 04:09:46;;;;;;;0.22;0.20;;;17.60;29.20;;;;;;4886854;29;20182;-82
2023/03/05 04:12:32;;;;;;;0.22;0.22;;;17.50;29.70;;;;;;4869186;29;20190;-84
2023/03/05 04:15:12;;;;;;;0.30;0.20;;;17.50;29.10;;;;;;4891946;29;20217;-83
2023/03/05 04:17:52;;;;;;;0.50;0.20;;;17.50;29.20;;;;;;4892114;29;20194;-84
2023/03/05 04:20:54;;;;;;;0.50;0.30;;;17.50;29.20;;;;;;4904401;29;20206;-82
2023/03/05 04:23:55;;;;;;;1.33;0.30;;;17.50;29.20;;;;;;4890784;29;20174;-84
2023/03/05 04:36:52;;;;;;;0.32;0.22;;;17.50;29.20;;;;;;4924643;29;20162;-82
2023/03/05 04:49:25;;;;;;;0.40;0.30;;;17.50;29.30;;;;;;4904696;29;20239;-83
2023/03/05 04:59:02;;;;;;;0.57;0.20;;;17.50;29.30;;;;;;4902991;29;20171;-83
2023/03/05 05:05:15;;;;;;;0.20;0.20;;;17.50;29.40;;;;;;4914723;29;20241;-83
2023/03/05 05:08:21;;;;;;;0.20;0.20;;;17.50;29.40;;;;;;4853866;29;20195;-84
2023/03/05 05:11:05;;;;;;;0.20;0.20;;;17.40;29.30;;;;;;4885131;29;20756;-83
2023/03/05 05:13:40;;;;;;;0.30;0.22;;;17.50;29.40;;;;;;4866181;29;20224;-82
2023/03/05 05:16:41;;;;;;;0.90;0.30;;;17.40;29.30;;;;;;4830196;29;20702;-83
2023/03/05 05:19:10;;;;;;;0.52;0.30;;;17.50;29.40;;;;;;4800585;29;20196;-83
2023/03/05 05:21:45;;;;;;;0.73;0.30;;;17.50;29.40;;;;;;4793237;29;20244;-82
2023/03/05 05:31:08;;;;;;;0.65;0.30;;;17.50;29.40;;;;;;4794047;29;20240;-82
2023/03/05 05:40:37;;;;;;;0.22;0.20;;;17.40;29.40;;;;;;4834245;29;20641;-81
2023/03/05 05:46:48;;;;;;;0.20;0.20;;;17.40;29.40;;;;;;4799227;29;20245;-82
2023/03/05 05:49:43;;;;;;;0.13;0.13;;;17.50;29.50;;;;;;4812245;29;20187;-83
2023/03/05 05:52:30;;;;;;;0.40;0.28;;;17.50;29.50;;;;;;4829149;29;20257;-83
2023/03/05 05:55:44;;;;;;;0.98;0.22;;;17.40;29.40;;;;;;4874728;29;20195;-82
2023/03/05 05:58:15;;;;;;;0.20;0.20;;;17.40;29.40;;;;;;4874777;29;20685;-83
2023/03/05 06:01:02;;;;;;;0.20;0.20;;;17.40;29.40;;;;;;4859494;29;20193;-83
2023/03/05 06:04:10;;;;;;;0.82;0.25;;;17.30;29.40;;;;;;4863466;29;20188;-84
2023/03/05 06:06:47;;;;;;;0.43;0.20;;;17.40;29.50;;;;;;4888834;29;20758;-82
2023/03/05 06:09:30;;;;;;;0.65;0.55;;;17.40;29.50;;;;;;4885108;29;20243;-82
2023/03/05 06:15:18;;;;;;;0.30;0.20;;;17.40;29.50;;;;;;4830995;29;20770;-84
2023/03/05 06:17:53;;;;;;;0.40;0.20;;;17.40;29.50;;;;;;4830653;29;20216;-85
2023/03/05 06:20:40;;;;;;;0.20;0.20;;;17.40;29.50;;;;;;4830296;29;20217;-84
2023/03/05 06:26:49;;;;;;;0.43;0.20;;;17.40;29.50;;;;;;4807339;29;20258;-84
2023/03/05 06:29:19;;;;;;;0.77;0.20;;;17.40;29.50;;;;;;4796521;29;20697;-84
2023/03/05 06:31:48;;;;;;;0.55;0.30;;;17.40;29.50;;;;;;4811428;29;20222;-84
2023/03/05 06:34:18;;;;;;;0.22;0.20;;;17.50;29.50;;;;;;4795360;29;20222;-82
2023/03/05 06:37:03;;;;;;;0.77;0.30;;;17.40;29.50;;;;;;4809349;29;20221;-83
2023/03/05 06:39:32;;;;;;;0.40;0.20;;;17.40;30.00;;;;;;4810667;29;20198;-84
2023/03/05 06:42:06;;;;;;;0.30;0.28;;;17.40;29.50;;;;;;4820802;29;20205;-85
2023/03/05 06:44:39;;;;;;;1.33;0.30;;;17.50;29.50;;;;;;4831430;29;20561;-82
2023/03/05 06:47:26;;;;;;;0.38;0.28;;;17.50;29.50;;;;;;4828581;29;20197;-84
2023/03/05 06:49:56;;;;;;;0.40;0.20;;;17.40;29.50;;;;;;4848288;29;20212;-82
2023/03/05 06:52:31;;;;;;;0.35;0.25;;;17.50;29.50;;;;;;4850477;29;20168;-84
2023/03/05 06:54:59;;;;;;;0.30;0.20;;;17.40;29.50;;;;;;4881164;29;20229;-84
2023/03/05 06:57:56;;;;;;;0.15;0.15;;;17.40;29.50;;;;;;4905271;29;20174;-84
2023/03/05 07:01:14;;;;;;;0.30;0.30;;;17.40;29.50;;;;;;4890564;29;20183;-82
2023/03/05 07:03:15;;;;;;;0.20;0.20;;;17.40;29.50;;;;;;4930674;29;20646;-84
2023/03/05 07:05:41;;;;;;;0.40;0.30;;;17.50;29.50;;;;;;4901287;29;20321;-84
2023/03/05 07:08:08;;;;;;;0.63;0.30;;;17.40;29.50;;;;;;4901691;29;20227;-84
2023/03/05 07:10:53;;;;;;;0.30;0.20;;;17.50;29.50;;;;;;4859709;29;20196;-85
2023/03/05 07:13:32;;;;;;;0.47;0.20;;;17.40;29.50;;;;;;4846645;29;20217;-84
2023/03/05 07:16:12;;;;;;;0.35;0.20;;;17.50;29.50;;;;;;4844881;29;20185;-83
2023/03/05 07:19:02;;;;;;;0.70;0.30;;;17.50;29.50;;;;;;4849389;29;20650;-85
2023/03/05 07:21:51;;;;;;;0.55;0.10;;;17.50;29.50;;;;;;4881333;29;20188;-84
2023/03/05 07:24:26;;;;;;;0.30;0.20;;;17.40;29.50;;;;;;4865705;29;20196;-85
2023/03/05 10:51:03;;;;;;;2.10;0.50;;;18.40;30.30;;;;;;4976815;28;20300;-84
2023/03/05 10:53:45;;;;;;;5.32;0.45;;;18.40;30.40;;;;;;4875354;29;20215;-84
2023/03/05 10:56:22;;;;;;;2.72;0.30;;;18.40;30.60;;;;;;4855812;29;20255;-82
2023/03/05 10:58:51;;;;;;;5.00;0.30;;;18.40;30.60;;;;;;4813516;29;20235;-81
2023/03/05 11:01:40;;;;;;;3.50;0.30;;;18.40;30.60;;;;;;4829445;29;20698;-81
2023/03/05 11:04:31;;;;;;;2.92;0.45;;;18.40;30.70;;;;;;4800792;29;20550;-82
2023/03/05 11:06:59;;;;;;;2.55;0.40;;;18.40;30.70;;;;;;4778671;30;20188;-82
2023/03/05 11:09:50;;;;;;;1.65;0.20;;;18.40;30.80;;;;;;4747595;30;20197;-82
2023/03/05 11:13:27;;;;;;;5.22;0.60;;;18.40;30.70;;;;;;4748657;30;20722;-83
2023/03/05 11:15:34;;;;;;;8.40;0.73;;;18.40;30.80;;;;;;4733729;30;20270;-83
2023/03/05 11:21:26;;;;;;;5.90;0.70;;;18.40;31.00;;;;;;4759491;30;20207;-82
2023/03/05 11:24:08;;;;;;;3.88;0.57;;;18.50;31.20;;;;;;4722627;30;20204;-84
2023/03/05 11:26:47;;;;;;;7.10;0.57;;;18.50;31.00;;;;;;4739200;30;20201;-81
2023/03/05 11:29:23;;;;;;;9.15;0.70;;;18.40;31.20;;;;;;4712483;30;20363;-83
2023/03/05 11:31:50;;;;;;;7.43;0.50;;;18.50;31.20;;;;;;4745902;30;20193;-82
2023/03/05 11:34:34;;;;;;;2.60;0.63;;;18.50;31.20;;;;;;4740336;30;20316;-81
2023/03/05 11:37:05;;;;;;;6.78;0.60;;;18.50;31.10;;;;;;4750286;29;20224;-83
2023/03/05 11:39:35;;;;;;;7.90;0.50;;;18.50;31.10;;;;;;4817817;29;20275;-83
2023/03/05 11:42:15;;;;;;;11.98;0.77;;;18.60;31.40;;;;;;4837661;29;20207;-82
2023/03/05 11:44:56;;;;;;;4.95;0.55;;;18.50;31.30;;;;;;4826449;29;20755;-82
2023/03/05 11:47:38;;;;;;;5.85;0.65;;;18.50;31.20;;;;;;4850390;29;20181;-82
2023/03/05 11:50:30;;;;;;;8.93;0.90;;;18.60;31.10;;;;;;4829916;29;20186;-81
2023/03/05 11:53:03;;;;;;;19.42;1.38;;;18.60;31.30;;;;;;4803181;29;20194;-82
2023/03/05 11:59:16;;;;;;;13.13;1.13;;;18.50;31.70;;;;;;4833331;29;20219;-82
2023/03/05 12:01:45;;;;;;;11.70;1.00;;;18.50;32.00;;;;;;4839427;29;20284;-82
2023/03/05 12:04:17;;;;;;;3.88;0.77;;;18.40;31.60;;;;;;4853836;29;20649;-82
2023/03/05 12:07:00;;;;;;;9.70;0.65;;;18.50;31.60;;;;;;4835540;29;20184;-82
2023/03/05 12:09:46;;;;;;;6.10;0.63;;;18.50;31.50;;;;;;4816088;29;20194;-83
2023/03/05 12:12:34;;;;;;;5.18;0.52;;;18.50;31.70;;;;;;4785798;30;20198;-84
2023/03/05 12:15:27;;;;;;;5.97;0.68;;;18.50;31.60;;;;;;4765101;30;20228;-85
2023/03/05 12:22:07;;;;;;;5.57;0.60;;;18.50;31.80;;;;;;4722301;30;20209;-82
2023/03/05 12:24:38;;;;;;;5.90;0.70;;;18.50;31.90;;;;;;4726014;30;20193;-82
2023/03/05 12:27:34;;;;;;;5.90;0.50;;;18.50;31.70;;;;;;4740848;30;20186;-83
2023/03/05 12:30:56;;;;;;;6.03;1.08;;;18.50;31.80;;;;;;4739149;30;20229;-85
2023/03/05 12:33:48;;;;;;;;;;;;;;;;;;;;;
2023/03/05 12:37:10;;;;;;;7.28;0.70;;;18.50;31.80;;;;;;4706316;30;20361;-83
2023/03/05 12:43:23;;;;;;;11.13;1.08;;;18.60;31.80;;;;;;4746013;29;20176;-81
2023/03/05 12:46:28;;;;;;;10.00;0.80;;;18.50;32.10;;;;;;4724071;30;20194;-83
2023/03/05 12:49:25;;;;;;;6.88;0.80;;;18.50;32.10;;;;;;4710297;30;20271;-83
2023/03/05 13:23:48;;;;;;;12.40;0.90;;;18.50;32.00;;;;;;4877078;29;20956;-86
2023/03/05 13:30:26;;;;;;;9.38;1.30;;;18.50;32.10;;;;;;4799648;30;20298;-86
2023/03/05 13:36:51;;;;;;;25.05;1.85;;;18.50;32.00;;;;;;4656431;30;20197;-85
2023/03/05 13:40:03;;;;;;;16.20;1.20;;;18.50;32.30;;;;;;4659229;30;20200;-85
2023/03/05 13:42:41;;;;;;;13.02;1.10;;;18.40;32.30;;;;;;4643440;31;20267;-83
2023/03/05 13:48:38;;;;;;;8.63;1.00;;;18.50;32.40;;;;;;4554346;31;20245;-84
2023/03/05 13:51:05;;;;;;;21.48;1.23;;;18.40;32.40;;;;;;4537207;31;20711;-83
2023/03/05 13:53:41;;;;;;;4.72;0.82;;;18.40;32.50;;;;;;4540440;31;20346;-86
2023/03/05 13:56:14;;;;;;;11.45;1.27;;;18.40;32.20;;;;;;4524752;31;20269;-82
2023/03/05 13:58:49;;;;;;;7.20;0.70;;;18.50;32.40;;;;;;4541235;31;20643;-84
2023/03/05 14:01:48;;;;;;;;;;;;;;;;;;;;;
2023/03/05 14:04:46;;;;;;;5.10;0.80;;;18.50;32.60;;;;;;4583676;31;20670;-82
2023/03/05 14:07:30;;;;;;;7.32;0.57;;;18.50;32.50;;;;;;4610864;31;20205;-83
2023/03/05 14:10:22;;;;;;;15.38;1.35;;;18.50;32.40;;;;;;4625494;31;20201;-83
2023/03/05 14:13:18;;;;;;;8.05;0.52;;;18.50;32.60;;;;;;4689894;30;20248;-83
2023/03/05 14:16:09;;;;;;;9.85;1.02;;;18.50;32.70;;;;;;4700872;30;20200;-85
2023/03/05 14:18:43;;;;;;;5.65;0.50;;;18.60;32.90;;;;;;4761779;30;20691;-84
2023/03/05 14:21:22;;;;;;;5.72;0.93;;;18.60;32.70;;;;;;4782070;30;20366;-85
2023/03/05 14:23:56;;;;;;;9.02;0.73;;;18.60;32.60;;;;;;4794967;30;20200;-85
2023/03/05 14:26:35;;;;;;;8.23;0.40;;;18.60;32.40;;;;;;4764780;30;20189;-85
2023/03/05 14:29:18;;;;;;;12.93;0.70;;;18.60;32.30;;;;;;4756044;30;20657;-84
2023/03/05 14:32:04;;;;;;;4.88;0.55;;;18.60;32.30;;;;;;4751555;30;20221;-84
2023/03/05 15:25:13;;;;;;;4.90;0.57;;;18.70;32.90;;;;;;4992613;28;20242;-84
2023/03/05 15:27:51;;;;;;;3.70;0.63;;;18.70;33.00;;;;;;4933282;29;20264;-86
2023/03/05 15:30:28;;;;;;;4.18;0.32;;;18.70;33.20;;;;;;4878946;29;20535;-85
2023/03/05 15:32:54;;;;;;;1.77;0.28;;;18.70;33.10;;;;;;4866180;29;20185;-86
2023/03/05 15:35:29;;;;;;;5.10;0.40;;;18.70;33.00;;;;;;4838274;29;20180;-83
2023/03/05 15:37:57;;;;;;;4.20;0.65;;;18.80;33.00;;;;;;4842410;29;20230;-85
2023/03/05 15:40:23;;;;;;;3.17;0.40;;;18.80;33.00;;;;;;4862766;29;20224;-84
2023/03/05 15:42:55;;;;;;;2.33;0.40;;;18.80;33.20;;;;;;4866145;29;20181;-84
2023/03/05 15:45:54;;;;;;;1.40;0.38;;;18.80;33.80;;;;;;4853374;29;20627;-86
2023/03/05 15:48:31;;;;;;;3.90;0.40;;;18.70;33.00;;;;;;4828935;29;20273;-85
2023/03/05 15:51:00;;;;;;;4.05;0.50;;;18.70;33.10;;;;;;4817736;29;20194;-85
2023/03/05 15:53:29;;;;;;;3.83;0.50;;;18.70;33.00;;;;;;4831741;29;20248;-85
2023/03/05 15:55:59;;;;;;;4.35;0.50;;;18.70;33.00;;;;;;4819028;29;20199;-87
2023/03/05 15:58:27;;;;;;;4.97;0.55;;;18.70;33.10;;;;;;4817045;29;20653;-86
2023/03/05 16:00:53;;;;;;;2.53;0.32;;;18.70;33.20;;;;;;4861770;29;20191;-87
2023/03/05 16:03:18;;;;;;;2.80;0.55;;;18.60;33.10;;;;;;4837177;29;20272;-84
2023/03/05 16:06:43;;;;;;;4.15;0.50;;;18.70;33.20;;;;;;4838747;29;20186;-85
2023/03/05 16:09:12;;;;;;;3.83;0.57;;;18.70;33.00;;;;;;4843847;29;20193;-87
2023/03/05 16:11:53;;;;;;;4.35;0.47;;;18.70;32.90;;;;;;4803017;29;20196;-86
2023/03/05 16:14:27;;;;;;;0.70;0.25;;;18.80;32.80;;;;;;4753833;30;20299;-85
2023/03/05 16:16:58;;;;;;;2.05;0.38;;;18.80;32.80;;;;;;4753771;30;20259;-85
2023/03/05 16:19:59;;;;;;;1.15;0.30;;;18.80;32.70;;;;;;4779377;29;20187;-86
2023/03/05 16:22:31;;;;;;;4.03;0.30;;;18.80;32.80;;;;;;4793862;29;20298;-84
2023/03/05 16:25:13;;;;;;;1.92;0.30;;;18.80;32.70;;;;;;4804351;29;20307;-85
2023/03/05 16:27:40;;;;;;;0.85;0.40;;;18.80;32.80;;;;;;4798386;29;20658;-83
2023/03/05 16:30:24;;;;;;;;;;;;;;;;;;;;;
2023/03/05 16:33:01;;;;;;;2.88;0.30;;;18.80;32.60;;;;;;4804786;29;20186;-84
2023/03/05 16:35:44;;;;;;;2.92;0.30;;;18.80;33.00;;;;;;4761716;30;20253;-84
2023/03/05 16:38:18;;;;;;;3.40;0.40;;;18.70;33.20;;;;;;4744629;30;20205;-82
2023/03/05 16:40:58;;;;;;;1.08;0.30;;;18.70;33.20;;;;;;4765215;30;20201;-80
2023/03/05 16:43:34;;;;;;;2.50;0.60;;;18.80;33.20;;;;;;4774392;30;20282;-83
2023/03/05 16:46:00;;;;;;;9.40;0.80;;;18.80;33.30;;;;;;4729702;30;20265;-84
2023/03/05 16:48:28;;;;;;;4.70;0.60;;;18.80;33.90;;;;;;4770050;30;20195;-83
2023/03/05 16:50:56;;;;;;;6.18;0.73;;;18.90;33.30;;;;;;4770848;30;20207;-81
2023/03/05 16:53:22;;;;;;;9.90;1.10;;;18.90;33.30;;;;;;4770717;30;20227;-81
2023/03/05 16:55:47;;;;;;;5.15;0.93;;;18.90;33.30;;;;;;4756391;30;20192;-81
2023/03/05 16:58:13;;;;;;;9.20;0.57;;;18.90;33.20;;;;;;4772440;30;20187;-81
2023/03/05 17:00:39;;;;;;;7.32;0.68;;;18.90;33.20;;;;;;4761172;30;20227;-84
2023/03/05 17:03:05;;;;;;;11.50;0.90;;;18.90;33.90;;;;;;4752553;30;20248;-84
2023/03/05 17:05:34;;;;;;;7.30;0.88;;;18.90;33.20;;;;;;4792382;29;20181;-84
2023/03/05 17:08:03;;;;;;;14.35;0.85;;;18.90;33.40;;;;;;4842024;29;20277;-83
2023/03/05 17:10:29;;;;;;;9.80;0.68;;;18.80;33.30;;;;;;4820774;29;20275;-82
2023/03/05 17:12:56;;;;;;;18.27;1.38;;;18.90;33.40;;;;;;4867783;29;20192;-84
2023/03/05 17:15:22;;;;;;;23.42;1.27;;;18.80;33.30;;;;;;4881908;29;20746;-84
2023/03/05 17:17:49;;;;;;;27.63;2.00;;;18.80;33.30;;;;;;4881450;29;20188;-84
2023/03/05 17:20:16;;;;;;;30.10;2.40;;;18.80;33.30;;;;;;4867748;29;20259;-84
2023/03/05 17:22:42;;;;;;;35.55;2.10;;;18.80;33.40;;;;;;4889108;29;20186;-82
2023/03/05 17:25:09;;;;;;;32.03;3.03;;;18.80;33.50;;;;;;4897358;29;20179;-84
2023/03/05 17:27:36;;;;;;;33.08;1.98;;;18.80;33.60;;;;;;4934182;29;20163;-82
2023/03/05 17:30:02;;;;;;;37.35;2.72;;;18.80;33.60;;;;;;4916535;29;20186;-81
2023/03/05 17:32:28;;;;;;;25.17;2.45;;;18.80;33.60;;;;;;4917702;29;20685;-83
2023/03/05 17:34:54;;;;;;;21.25;1.98;;;18.80;33.50;;;;;;4900960;29;20210;-84
2023/03/05 17:37:20;;;;;;;32.10;2.15;;;18.90;33.60;;;;;;4901325;29;20179;-81
2023/03/05 17:39:46;;;;;;;24.17;2.28;;;18.90;33.60;;;;;;4903868;29;20178;-82
2023/03/05 17:42:12;;;;;;;28.98;2.28;;;18.90;33.80;;;;;;4934090;29;20171;-82
2023/03/05 17:44:37;;;;;;;24.17;2.95;;;18.80;33.50;;;;;;4917210;29;20226;-82
2023/03/05 17:47:03;;;;;;;27.65;2.53;;;18.90;33.50;;;;;;4901610;29;20242;-84
2023/03/05 17:49:34;;;;;;;24.27;2.38;;;18.90;33.50;;;;;;4917716;29;20163;-85
2023/03/05 17:52:00;;;;;;;24.65;1.85;;;18.90;33.60;;;;;;4902330;29;20278;-82
2023/03/05 17:54:29;;;;;;;30.85;2.55;;;18.90;33.60;;;;;;4917729;29;20261;-84
2023/03/05 17:56:55;;;;;;;28.35;1.90;;;18.90;33.60;;;;;;4902742;29;20175;-84
2023/03/05 17:59:21;;;;;;;15.38;1.65;;;18.90;33.60;;;;;;4916698;29;20163;-83
2023/03/05 18:01:47;;;;;;;31.85;2.20;;;18.90;33.50;;;;;;4917612;29;20568;-82
2023/03/05 18:04:14;;;;;;;16.42;1.77;;;18.90;33.60;;;;;;4931228;29;20185;-85
2023/03/05 18:06:42;;;;;;;23.90;2.10;;;18.90;33.40;;;;;;4912287;29;20207;-83
2023/03/05 18:09:09;;;;;;;22.90;2.72;;;18.90;33.30;;;;;;4924816;29;20165;-85
2023/03/05 18:11:34;;;;;;;24.20;1.83;;;18.90;33.30;;;;;;4908614;29;20174;-83
2023/03/05 18:14:01;;;;;;;23.38;2.05;;;18.90;33.20;;;;;;4924680;29;20186;-84
2023/03/05 18:16:27;;;;;;;21.92;2.05;;;18.90;33.20;;;;;;4924067;29;20157;-82
2023/03/05 18:18:53;;;;;;;17.95;1.55;;;18.90;33.20;;;;;;4923796;29;20290;-85
2023/03/05 18:21:20;;;;;;;16.45;1.25;;;18.80;33.00;;;;;;4924108;29;20158;-84
2023/03/05 18:23:46;;;;;;;23.27;1.73;;;18.80;32.90;;;;;;4909721;29;20178;-82
2023/03/05 18:26:12;;;;;;;14.55;1.17;;;18.90;33.00;;;;;;4913449;29;20317;-84
2023/03/05 18:28:38;;;;;;;11.48;2.15;;;18.90;33.00;;;;;;4912282;29;20208;-82
2023/03/05 18:31:04;;;;;;;13.23;2.03;;;18.80;33.00;;;;;;4961957;28;20161;-84
2023/03/05 18:33:31;;;;;;;14.90;1.50;;;18.80;32.90;;;;;;4948028;29;20217;-85
2023/03/05 18:35:59;;;;;;;15.82;1.23;;;18.80;32.90;;;;;;4903483;29;20313;-84
2023/03/05 18:38:27;;;;;;;12.85;1.63;;;18.80;32.80;;;;;;4903347;29;20549;-85
2023/03/05 18:40:53;;;;;;;13.60;1.50;;;18.80;32.70;;;;;;4918485;29;20179;-84
2023/03/05 18:43:20;;;;;;;12.32;1.52;;;18.80;32.80;;;;;;4904615;29;20179;-85
2023/03/05 18:45:53;;;;;;;9.88;1.10;;;18.80;32.90;;;;;;4907169;29;20179;-84
2023/03/05 18:48:20;;;;;;;11.77;1.15;;;18.80;32.90;;;;;;4923725;29;20182;-84
2023/03/05 18:50:50;;;;;;;13.05;1.20;;;18.80;32.80;;;;;;4907607;29;20175;-86
2023/03/05 18:53:22;;;;;;;11.40;1.30;;;18.80;32.70;;;;;;4922480;29;20202;-85
2023/03/05 18:55:48;;;;;;;9.52;1.00;;;18.80;32.80;;;;;;4906597;29;20184;-85
2023/03/05 18:58:16;;;;;;;8.52;1.23;;;18.80;32.80;;;;;;4906067;29;20171;-83
2023/03/05 19:00:42;;;;;;;15.75;1.30;;;18.80;32.80;;;;;;4905959;29;20565;-84
2023/03/05 19:03:09;;;;;;;16.85;1.48;;;18.80;32.80;;;;;;4906412;29;20280;-83
2023/03/05 19:05:37;;;;;;;9.73;1.20;;;18.80;32.80;;;;;;4938170;29;20171;-85
2023/03/05 19:08:03;;;;;;;10.13;1.30;;;18.80;32.70;;;;;;4891779;29;20179;-85
2023/03/05 19:10:30;;;;;;;12.15;1.23;;;18.80;32.60;;;;;;4891166;29;20246;-84
2023/03/05 19:13:17;;;;;;;13.05;1.20;;;18.80;32.70;;;;;;4918520;29;20185;-84
2023/03/05 19:15:44;;;;;;;8.80;1.85;;;18.80;32.60;;;;;;4948313;29;20237;-85
2023/03/05 19:18:11;;;;;;;7.38;1.00;;;18.80;32.60;;;;;;4930409;29;20158;-83
2023/03/05 19:20:38;;;;;;;6.93;0.95;;;18.80;32.50;;;;;;4944756;29;20165;-84
2023/03/05 19:23:06;;;;;;;6.28;1.05;;;18.80;32.40;;;;;;4912203;29;20176;-84
2023/03/05 19:25:31;;;;;;;13.93;1.08;;;18.80;32.50;;;;;;4928354;28;20172;-85
2023/03/05 19:27:58;;;;;;;4.43;0.88;;;18.80;32.50;;;;;;4894606;29;20174;-86
2023/03/05 19:30:24;;;;;;;7.68;1.20;;;18.80;32.30;;;;;;4909304;29;20158;-85
2023/03/05 19:32:50;;;;;;;4.97;0.80;;;18.80;32.40;;;;;;4893051;29;20181;-83
2023/03/05 19:35:17;;;;;;;9.23;1.05;;;18.80;32.30;;;;;;4924321;29;20212;-84
2023/03/05 19:37:44;;;;;;;6.53;0.82;;;18.70;32.30;;;;;;4923429;29;20245;-83
2023/03/05 19:40:11;;;;;;;3.97;0.77;;;18.70;32.30;;;;;;4908003;29;20272;-84
2023/03/05 19:42:37;;;;;;;4.90;1.00;;;18.80;32.30;;;;;;4941966;29;20189;-82
2023/03/05 19:45:05;;;;;;;14.77;1.35;;;18.80;32.40;;;;;;4907274;29;20174;-84
2023/03/05 19:47:31;;;;;;;7.45;0.90;;;18.80;32.30;;;;;;4921479;29;20202;-83
2023/03/05 19:49:57;;;;;;;4.70;1.00;;;18.80;32.30;;;;;;4939990;29;20166;-82
2023/03/05 19:52:22;;;;;;;5.60;0.80;;;18.80;32.30;;;;;;4923420;29;20524;-83
2023/03/05 19:54:48;;;;;;;7.40;1.00;;;18.80;32.30;;;;;;4923841;29;20257;-83
2023/03/05 19:57:14;;;;;;;2.72;1.10;;;18.80;32.30;;;;;;4906033;29;20265;-83
2023/03/05 19:59:39;;;;;;;4.72;1.00;;;18.70;32.30;;;;;;4906489;29;20237;-83
2023/03/05 20:02:07;;;;;;;4.75;0.65;;;18.70;32.30;;;;;;4905841;29;20158;-83
2023/03/05 20:04:33;;;;;;;4.00;0.63;;;18.70;32.30;;;;;;4906748;29;20182;-82
2023/03/05 20:06:59;;;;;;;7.60;1.08;;;18.70;32.20;;;;;;4907592;29;20169;-82
2023/03/05 20:09:25;;;;;;;4.13;0.80;;;18.70;32.30;;;;;;4912238;29;20162;-82
2023/03/05 20:11:51;;;;;;;2.30;0.60;;;18.70;32.20;;;;;;4897118;29;20196;-82
2023/03/05 20:14:17;;;;;;;3.47;0.80;;;18.70;32.20;;;;;;4922022;29;20190;-83
2023/03/05 20:16:46;;;;;;;2.53;0.50;;;18.70;32.30;;;;;;4922962;29;20168;-83
2023/03/05 20:19:15;;;;;;;3.05;0.93;;;18.70;32.20;;;;;;4922091;29;20644;-84
2023/03/05 20:21:42;;;;;;;2.85;0.75;;;18.70;32.30;;;;;;4890742;29;20279;-84
2023/03/05 20:24:13;;;;;;;5.13;0.88;;;18.70;32.10;;;;;;4922244;29;20166;-83
2023/03/05 20:26:39;;;;;;;2.05;0.60;;;18.70;32.20;;;;;;4932755;29;20220;-83
2023/03/05 20:29:05;;;;;;;4.32;1.00;;;18.70;32.20;;;;;;4908989;29;20177;-82
2023/03/05 20:31:35;;;;;;;2.97;0.80;;;18.70;32.20;;;;;;4908878;29;20228;-83
2023/03/05 20:34:03;;;;;;;2.28;0.75;;;18.70;32.10;;;;;;4910883;29;20255;-85
2023/03/05 20:36:29;;;;;;;2.17;0.75;;;18.70;32.10;;;;;;4925128;29;20644;-83
2023/03/05 20:38:55;;;;;;;3.28;0.70;;;18.70;32.10;;;;;;4940725;29;20177;-84
2023/03/05 20:41:20;;;;;;;5.28;0.60;;;18.70;32.10;;;;;;4939923;29;20153;-84
2023/03/05 20:43:47;;;;;;;2.78;0.68;;;18.60;32.00;;;;;;4924493;29;20197;-83
2023/03/05 20:46:16;;;;;;;3.03;0.63;;;18.60;32.00;;;;;;4924301;29;20562;-84
2023/03/05 20:48:42;;;;;;;1.13;0.60;;;18.70;32.00;;;;;;4925091;29;20169;-85
2023/03/05 20:51:11;;;;;;;2.05;0.88;;;18.60;31.90;;;;;;4924287;29;20158;-82
2023/03/05 20:53:37;;;;;;;1.20;0.50;;;18.70;32.60;;;;;;4924175;29;20209;-83
2023/03/05 20:56:03;;;;;;;2.83;0.50;;;18.70;32.00;;;;;;4924028;29;20165;-84
2023/03/05 20:58:30;;;;;;;1.35;0.60;;;18.70;31.90;;;;;;4939418;29;20192;-83
2023/03/05 21:00:56;;;;;;;1.67;0.80;;;18.60;31.90;;;;;;4923937;29;20157;-82
2023/03/05 21:03:22;;;;;;;1.60;0.70;;;18.60;31.90;;;;;;4939604;29;20237;-84
2023/03/05 21:05:48;;;;;;;1.70;0.93;;;18.70;31.90;;;;;;4939591;29;20173;-83
2023/03/05 21:08:15;;;;;;;1.80;0.90;;;18.60;31.90;;;;;;4907319;29;20539;-83
2023/03/05 21:10:42;;;;;;;2.40;0.70;;;18.60;31.90;;;;;;4908807;29;20173;-83
2023/03/05 21:13:08;;;;;;;5.30;0.70;;;18.60;32.00;;;;;;4923947;29;20212;-82
2023/03/05 21:15:34;;;;;;;2.83;0.90;;;18.50;31.90;;;;;;4908418;29;20240;-85
2023/03/05 21:18:00;;;;;;;3.10;0.63;;;18.60;31.90;;;;;;4956993;29;20157;-82
2023/03/05 21:20:27;;;;;;;3.28;0.88;;;18.50;31.90;;;;;;4923689;29;20221;-85
2023/03/05 21:22:54;;;;;;;2.55;0.75;;;18.60;31.80;;;;;;4939630;29;20160;-85
2023/03/05 21:25:23;;;;;;;1.23;0.70;;;18.60;31.90;;;;;;4908302;28;20180;-85
2023/03/05 21:27:53;;;;;;;1.70;0.73;;;18.60;31.90;;;;;;4924216;29;20169;-84
2023/03/05 21:30:20;;;;;;;2.10;0.77;;;18.60;31.90;;;;;;4939834;29;20213;-84
2023/03/05 21:32:47;;;;;;;2.75;0.60;;;18.60;31.90;;;;;;4939547;29;20264;-85
2023/03/05 21:35:15;;;;;;;1.42;0.60;;;18.60;31.90;;;;;;4923601;29;20240;-82
2023/03/05 21:37:41;;;;;;;1.08;0.70;;;18.60;31.90;;;;;;4908011;29;20220;-85
2023/03/05 21:40:10;;;;;;;1.38;0.70;;;18.60;31.80;;;;;;4923667;29;20188;-83
2023/03/05 21:42:36;;;;;;;1.10;0.50;;;18.50;32.50;;;;;;4908521;29;20173;-83